createdAt,value
2023-02-06T00:02:41.223Z,23.00
2023-02-06T00:07:44.098Z,23.10
2023-02-06T00:12:47.031Z,23.00
2023-02-06T00:17:51.258Z,23.00
2023-02-06T00:22:54.859Z,23.00
2023-02-06T00:27:58.954Z,23.00
2023-02-06T00:33:03.131Z,23.00
2023-02-06T00:38:06.715Z,23.00
2023-02-06T00:43:09.639Z,23.10
2023-02-06T00:48:16.600Z,23.10
2023-02-06T00:53:19.949Z,23.10
2023-02-06T00:58:22.842Z,23.10
2023-02-06T01:03:27.034Z,23.10
2023-02-06T01:08:29.863Z,23.00
2023-02-06T01:13:32.681Z,23.00
2023-02-06T01:18:36.845Z,23.10
2023-02-06T01:23:40.499Z,23.00
2023-02-06T01:28:44.527Z,23.00
2023-02-06T01:33:49.744Z,23.10
2023-02-06T01:38:53.019Z,23.10
2023-02-06T01:44:11.569Z,23.10
2023-02-06T01:49:19.502Z,23.00
2023-02-06T01:54:22.421Z,23.00
2023-02-06T01:59:25.761Z,22.90
2023-02-06T02:04:33.042Z,23.00
2023-02-06T02:09:36.055Z,23.00
2023-02-06T02:14:40.118Z,23.00
2023-02-06T02:20:27.478Z,23.10
2023-02-06T02:25:56.209Z,23.10
2023-02-06T02:31:15.614Z,23.10
2023-02-06T02:36:21.607Z,23.10
2023-02-06T02:41:28.870Z,23.10
2023-02-06T02:46:36.019Z,23.00
2023-02-06T02:51:40.524Z,23.10
2023-02-06T02:56:43.495Z,23.00
2023-02-06T03:01:51.720Z,23.10
2023-02-06T03:07:03.129Z,23.10
2023-02-06T03:12:11.508Z,23.10
2023-02-06T03:17:16.972Z,23.10
2023-02-06T03:22:21.239Z,23.10
2023-02-06T03:27:24.287Z,23.10
2023-02-06T03:32:30.148Z,23.10
2023-02-06T03:37:35.737Z,23.00
2023-02-06T03:42:41.287Z,22.90
2023-02-06T03:47:45.226Z,23.00
2023-02-06T03:52:51.095Z,23.00
2023-02-06T03:57:56.417Z,23.10
2023-02-06T04:02:59.646Z,23.10
2023-02-06T04:08:04.196Z,23.10
2023-02-06T04:13:06.982Z,23.10
2023-02-06T04:18:09.849Z,23.00
2023-02-06T04:23:13.986Z,23.00
2023-02-06T04:28:16.954Z,23.00
2023-02-06T04:33:21.393Z,23.00
2023-02-06T04:38:25.606Z,23.00
2023-02-06T04:43:28.385Z,23.00
2023-02-06T04:48:31.259Z,23.10
2023-02-06T04:53:35.401Z,23.00
2023-02-06T04:58:39.054Z,23.00
2023-02-06T05:03:42.682Z,23.00
2023-02-06T05:08:47.292Z,22.90
2023-02-06T05:13:50.185Z,23.00
2023-02-06T05:18:54.507Z,22.90
2023-02-06T05:23:59.060Z,23.10
2023-02-06T05:29:01.937Z,23.00
2023-02-06T05:34:04.859Z,23.00
2023-02-06T05:39:09.153Z,23.00
2023-02-06T05:44:12.166Z,23.00
2023-02-06T05:49:15.113Z,22.90
2023-02-06T05:54:19.310Z,22.90
2023-02-06T05:59:22.233Z,22.90
2023-02-06T06:04:25.387Z,23.00
2023-02-06T06:09:29.596Z,23.00
2023-02-06T06:14:33.166Z,23.00
2023-02-06T06:19:36.001Z,22.90
2023-02-06T06:24:40.238Z,22.90
2023-02-06T06:29:43.082Z,23.00
2023-02-06T06:34:45.997Z,23.00
2023-02-06T06:39:50.270Z,23.10
2023-02-06T06:44:53.114Z,23.00
2023-02-06T06:49:55.952Z,22.90
2023-02-06T06:55:00.311Z,23.00
2023-02-06T07:00:03.334Z,22.90
2023-02-06T07:05:06.972Z,22.90
2023-02-06T07:10:12.158Z,22.80
2023-02-06T07:15:15.516Z,22.80
2023-02-06T07:20:18.567Z,22.90
2023-02-06T07:25:22.756Z,22.70
2023-02-06T07:30:25.679Z,22.70
2023-02-06T07:35:28.575Z,22.80
2023-02-06T07:46:34.600Z,23.10
2023-02-06T07:51:37.407Z,23.10
2023-02-06T07:56:40.425Z,23.20
2023-02-06T08:01:44.646Z,23.40
2023-02-06T08:06:47.466Z,23.40
2023-02-06T08:11:50.425Z,23.50
2023-02-06T08:16:54.852Z,23.50
2023-02-06T08:21:57.743Z,23.20
2023-02-06T08:27:02.878Z,23.30
2023-02-06T08:36:55.707Z,23.60
2023-02-06T08:46:01.642Z,23.60
2023-02-06T08:51:05.466Z,23.40
2023-02-06T08:56:10.275Z,23.20
2023-02-06T09:01:16.684Z,23.10
2023-02-06T09:06:19.642Z,23.10
2023-02-06T09:11:24.511Z,23.10
2023-02-06T09:16:29.575Z,23.20
2023-02-06T09:21:34.236Z,23.20
2023-02-06T09:26:44.786Z,23.30
2023-02-06T09:31:54.647Z,23.20
2023-02-06T09:38:28.751Z,23.60
2023-02-06T09:47:58.490Z,23.00
2023-02-06T09:53:11.470Z,23.00
2023-02-06T09:58:21.114Z,23.10
2023-02-06T10:03:40.728Z,23.10
2023-02-06T10:08:47.190Z,23.20
2023-02-06T10:13:53.930Z,23.10
2023-02-06T10:19:04.155Z,23.20
2023-02-06T10:24:12.017Z,23.20
2023-02-06T10:29:19.469Z,23.30
2023-02-06T10:34:34.658Z,23.20
2023-02-06T10:39:49.736Z,23.30
2023-02-06T10:45:13.147Z,23.30
2023-02-06T10:50:27.359Z,23.30
2023-02-06T10:55:33.382Z,23.00
2023-02-06T11:00:36.693Z,23.20
2023-02-06T11:05:41.511Z,23.20
2023-02-06T11:10:46.285Z,23.50
2023-02-06T11:15:53.502Z,23.50
2023-02-06T11:20:57.809Z,23.40
2023-02-06T11:26:10.678Z,23.40
2023-02-06T11:31:13.731Z,23.90
2023-02-06T11:36:25.277Z,23.40
2023-02-06T11:41:29.303Z,23.30
2023-02-06T11:46:35.117Z,23.20
2023-02-06T11:51:55.277Z,23.20
2023-02-06T11:57:03.149Z,23.10
2023-02-06T12:02:26.815Z,23.10
2023-02-06T12:07:33.833Z,23.20
2023-02-06T12:12:38.808Z,23.20
2023-02-06T12:17:43.727Z,23.30
2023-02-06T12:22:53.194Z,23.30
2023-02-06T12:27:58.281Z,23.20
2023-02-06T12:33:06.289Z,23.30
2023-02-06T12:38:16.642Z,23.40
2023-02-06T12:43:20.198Z,23.30
2023-02-06T12:48:26.842Z,23.20
2023-02-06T12:53:35.411Z,23.30
2023-02-06T12:58:50.689Z,23.20
2023-02-06T13:03:56.409Z,23.10
2023-02-06T13:09:02.259Z,23.20
2023-02-06T13:14:08.366Z,23.10
2023-02-06T13:19:28.711Z,23.30
2023-02-06T13:24:32.859Z,23.20
2023-02-06T13:29:37.567Z,23.10
2023-02-06T13:34:44.319Z,23.10
2023-02-06T13:39:49.779Z,23.10
2023-02-06T13:44:52.761Z,23.10
2023-02-06T13:50:29.542Z,23.30
2023-02-06T13:55:44.155Z,23.30
2023-02-06T14:00:48.956Z,23.60
2023-02-06T14:05:57.057Z,23.80
2023-02-06T14:11:23.104Z,22.60
2023-02-06T14:16:34.127Z,22.40
2023-02-06T14:21:45.787Z,22.50
2023-02-06T14:26:56.765Z,22.50
2023-02-06T14:32:11.140Z,22.30
2023-02-06T14:37:25.108Z,22.40
2023-02-06T14:42:33.639Z,22.60
2023-02-06T14:47:42.255Z,22.60
2023-02-06T14:52:46.666Z,22.60
2023-02-06T14:57:51.339Z,22.70
2023-02-06T15:03:05.552Z,23.00
2023-02-06T15:08:08.675Z,22.80
2023-02-06T15:13:21.954Z,22.80
2023-02-06T15:18:25.121Z,22.80
2023-02-06T15:23:38.786Z,22.80
2023-02-06T15:28:44.847Z,22.90
2023-02-06T15:41:31.803Z,23.00
2023-02-06T16:02:46.665Z,23.00
2023-02-06T16:07:51.227Z,22.80
2023-02-06T16:12:55.126Z,22.80
2023-02-06T16:18:01.027Z,23.00
2023-02-06T16:23:23.819Z,23.00
2023-02-06T16:28:28.021Z,23.00
2023-02-06T16:33:36.250Z,23.20
2023-02-06T16:38:39.378Z,23.50
2023-02-06T16:43:42.254Z,23.70
2023-02-06T16:48:47.085Z,23.70
2023-02-06T16:53:50.701Z,23.70
2023-02-06T16:58:53.551Z,23.70
2023-02-06T17:03:57.768Z,23.70
2023-02-06T17:09:04.372Z,23.70
2023-02-06T17:14:07.437Z,23.70
2023-02-06T17:19:14.905Z,23.70
2023-02-06T17:24:17.804Z,23.70
2023-02-06T17:29:20.833Z,23.60
2023-02-06T17:34:25.556Z,23.70
2023-02-06T17:39:28.562Z,23.60
2023-02-06T17:44:31.436Z,23.50
2023-02-06T17:49:35.595Z,23.60
2023-02-06T17:54:38.521Z,23.60
2023-02-06T17:59:41.416Z,23.60
2023-02-06T18:04:48.584Z,23.60
2023-02-06T18:09:51.378Z,23.60
2023-02-06T18:14:54.286Z,23.60
2023-02-06T18:19:58.528Z,23.60
2023-02-06T18:25:03.260Z,23.60
2023-02-06T18:30:06.901Z,23.60
2023-02-06T18:35:11.843Z,23.60
2023-02-06T18:40:14.720Z,23.70
2023-02-06T18:45:18.850Z,23.60
2023-02-06T18:50:23.325Z,23.50
2023-02-06T18:55:26.492Z,23.60
2023-02-06T19:00:30.362Z,23.60
2023-02-06T19:05:37.404Z,23.60
2023-02-06T19:10:40.590Z,23.50
2023-02-06T19:15:43.485Z,23.60
2023-02-06T19:20:47.644Z,23.60
2023-02-06T19:25:50.537Z,23.60
2023-02-06T19:30:53.448Z,23.60
2023-02-06T19:35:57.900Z,23.50
2023-02-06T19:41:06.303Z,23.50
2023-02-06T19:46:11.991Z,23.50
2023-02-06T19:51:17.641Z,23.50
2023-02-06T19:56:22.165Z,23.50
2023-02-06T20:01:25.640Z,23.60
2023-02-06T20:06:34.742Z,23.50
2023-02-06T20:11:38.020Z,23.50
2023-02-06T20:16:42.311Z,23.50
2023-02-06T20:21:48.525Z,23.50
2023-02-06T20:26:56.212Z,23.50
2023-02-06T20:32:00.173Z,23.60
2023-02-06T20:37:04.674Z,23.50
2023-02-06T20:42:08.229Z,23.40
2023-02-06T20:47:11.486Z,23.40
2023-02-06T20:52:15.678Z,23.40
2023-02-06T20:57:18.490Z,23.40
2023-02-06T21:02:21.574Z,23.40
2023-02-06T21:07:25.994Z,23.40
2023-02-06T21:12:28.843Z,23.40
2023-02-06T21:17:32.114Z,23.40
2023-02-06T21:22:36.331Z,23.40
2023-02-06T21:27:39.175Z,23.40
2023-02-06T21:32:42.030Z,23.50
2023-02-06T21:37:46.256Z,23.40
2023-02-06T21:42:49.308Z,23.40
2023-02-06T21:47:52.113Z,23.30
2023-02-06T21:52:56.253Z,23.40
2023-02-06T21:57:59.264Z,23.40
2023-02-06T22:03:02.231Z,23.40
2023-02-06T22:08:07.619Z,23.40
2023-02-06T22:13:10.467Z,23.40
2023-02-06T22:18:13.267Z,23.40
2023-02-06T22:23:17.449Z,23.40
2023-02-06T22:28:20.412Z,23.40
2023-02-06T22:33:23.275Z,23.40
2023-02-06T22:38:27.690Z,23.40
2023-02-06T22:43:31.046Z,23.30
2023-02-06T22:48:34.242Z,23.40
2023-02-06T22:53:39.489Z,23.40
2023-02-06T22:58:42.590Z,23.40
2023-02-06T23:03:45.762Z,23.40
2023-02-06T23:08:51.685Z,23.40
2023-02-06T23:13:55.959Z,23.40
2023-02-06T23:18:59.701Z,23.40
2023-02-06T23:24:05.189Z,23.50
2023-02-06T23:29:09.491Z,23.40
2023-02-06T23:34:12.694Z,23.50
2023-02-06T23:39:17.005Z,23.40
2023-02-06T23:44:20.105Z,23.40
2023-02-06T23:49:22.904Z,23.40
2023-02-06T23:54:27.082Z,23.30
2023-02-06T23:59:29.960Z,23.30
